Time;durP1;ratioP1;P1;durP2;ratioP2;P2;SDS_P1;SDS_P2;PMS_P1;PMS_P2;Temp;Humidity;BMP_temperature;BMP_pressure;BME280_temperature;BME280_humidity;BME280_pressure;Samples;Min_cycle;Max_cycle;Signal;HPM_P1;HPM_P2
2022/07/18 00:00:55;;;;;;;3.80;2.23;;;;;;;16.41;49.45;101233.95;123545;1099;104369;-78
2022/07/18 00:03:26;;;;;;;4.70;2.17;;;;;;;16.39;48.84;101234.77;123552;1099;104344;-77
2022/07/18 00:05:58;;;;;;;2.33;2.10;;;;;;;16.35;49.41;101233.80;123558;1099;104248;-77
2022/07/18 00:08:29;;;;;;;3.00;2.20;;;;;;;16.30;49.22;101233.70;123550;1098;104187;-77
2022/07/18 00:11:00;;;;;;;4.90;2.60;;;;;;;16.25;49.58;101238.00;123478;1099;104395;-77
2022/07/18 00:13:32;;;;;;;4.87;2.37;;;;;;;16.22;50.24;101245.86;123242;1099;104243;-77
2022/07/18 00:16:03;;;;;;;3.07;2.30;;;;;;;16.18;50.29;101247.52;123525;1099;104265;-77
2022/07/18 00:18:36;;;;;;;5.43;2.50;;;;;;;16.17;50.03;101251.05;123514;1099;104358;-77
2022/07/18 00:21:08;;;;;;;4.63;2.10;;;;;;;16.15;50.34;101242.15;123541;1099;104345;-77
2022/07/18 00:23:39;;;;;;;6.50;2.40;;;;;;;16.14;49.86;101245.67;123528;1099;104974;-77
2022/07/18 00:26:11;;;;;;;4.47;2.50;;;;;;;16.15;50.94;101247.45;123516;1099;104281;-78
2022/07/18 00:28:42;;;;;;;7.25;2.65;;;;;;;16.10;50.21;101248.20;123528;1099;104265;-77
2022/07/18 00:31:14;;;;;;;3.97;2.30;;;;;;;16.09;50.40;101252.59;123594;1099;104210;-78
2022/07/18 00:33:45;;;;;;;7.23;2.40;;;;;;;16.05;50.35;101256.03;123546;1098;104325;-77
2022/07/18 00:36:17;;;;;;;3.90;2.37;;;;;;;16.01;50.30;101250.63;123534;1099;104431;-78
2022/07/18 00:38:48;;;;;;;3.23;2.37;;;;;;;15.93;50.69;101255.72;123553;1099;104272;-77
2022/07/18 00:41:20;;;;;;;5.77;2.33;;;;;;;15.87;50.49;101250.27;123522;1099;104258;-77
2022/07/18 00:43:52;;;;;;;3.63;2.00;;;;;;;15.81;51.46;101250.98;123552;1099;104344;-77
2022/07/18 00:46:28;;;;;;;2.97;2.10;;;;;;;15.76;51.42;101260.53;123560;1099;104369;-77
2022/07/18 00:48:59;;;;;;;2.50;2.13;;;;;;;15.69;52.11;101261.20;123458;1099;104315;-78
2022/07/18 00:51:30;;;;;;;5.03;2.03;;;;;;;15.63;51.25;101256.67;123610;1099;104393;-77
2022/07/18 00:54:05;;;;;;;3.53;2.20;;;;;;;15.58;52.17;101261.83;123510;1098;104661;-77
2022/07/18 00:56:37;;;;;;;3.97;2.07;;;;;;;15.54;51.81;101259.95;123513;1099;104344;-78
2022/07/18 00:59:08;;;;;;;2.60;1.93;;;;;;;15.48;51.57;101257.13;123551;1099;104288;-77
2022/07/18 01:01:43;;;;;;;5.37;2.30;;;;;;;15.44;51.89;101255.24;123552;1098;104355;-77
2022/07/18 01:04:18;;;;;;;4.13;2.10;;;;;;;15.41;52.08;101255.16;123564;1098;104341;-78
2022/07/18 01:06:52;;;;;;;5.70;2.40;;;;;;;15.36;52.19;101257.67;123526;1098;104267;-78
2022/07/18 01:09:24;;;;;;;5.03;2.75;;;;;;;15.34;52.19;101256.74;123528;1098;104245;-77
2022/07/18 01:11:55;;;;;;;4.33;2.23;;;;;;;15.29;52.36;101255.73;123564;1099;104332;-78
2022/07/18 01:14:27;;;;;;;6.67;2.30;;;;;;;15.26;52.88;101251.23;123525;1099;104492;-77
2022/07/18 01:16:59;;;;;;;3.77;2.17;;;;;;;15.25;52.90;101244.18;123578;1099;104261;-77
2022/07/18 01:19:30;;;;;;;8.67;2.77;;;;;;;15.24;53.22;101252.06;123460;1098;104310;-77
2022/07/18 01:22:02;;;;;;;3.73;2.40;;;;;;;15.23;52.61;101245.86;123534;1099;104329;-78
2022/07/18 01:24:34;;;;;;;6.27;2.20;;;;;;;15.25;53.06;101252.11;123538;1099;104274;-77
2022/07/18 01:27:06;;;;;;;5.40;2.40;;;;;;;15.30;52.48;101253.97;123559;1099;104277;-77
2022/07/18 01:29:37;;;;;;;5.17;2.30;;;;;;;15.32;52.88;101253.17;123528;1099;104272;-77
2022/07/18 01:32:10;;;;;;;3.55;2.35;;;;;;;15.28;52.45;101254.80;123594;1098;104242;-77
2022/07/18 01:34:42;;;;;;;4.70;2.50;;;;;;;15.26;53.36;101255.64;123703;1099;104271;-77
2022/07/18 01:37:15;;;;;;;5.87;2.60;;;;;;;15.34;52.69;101253.22;123578;1099;104361;-77
2022/07/18 01:39:48;;;;;;;2.73;2.23;;;;;;;15.40;53.49;101248.98;123577;1099;104623;-77
2022/07/18 01:42:19;;;;;;;3.90;2.40;;;;;;;15.44;53.20;101255.24;123614;1099;104351;-77
2022/07/18 01:44:50;;;;;;;4.47;2.57;;;;;;;15.44;53.30;101256.16;123506;1099;104644;-77
2022/07/18 01:47:22;;;;;;;6.10;2.77;;;;;;;15.40;53.49;101256.03;123597;1099;104339;-77
2022/07/18 01:49:53;;;;;;;5.63;2.60;;;;;;;15.37;53.89;101254.19;123640;1099;104280;-77
2022/07/18 01:52:25;;;;;;;3.80;2.47;;;;;;;15.34;53.70;101254.09;123808;1099;104370;-77
2022/07/18 01:54:57;;;;;;;4.27;2.40;;;;;;;15.34;53.21;101256.74;123845;1099;104236;-77
2022/07/18 01:57:28;;;;;;;3.73;2.20;;;;;;;15.32;54.03;101257.54;123734;1099;104367;-77
2022/07/18 01:59:59;;;;;;;4.40;2.20;;;;;;;15.30;53.47;101244.27;123684;1099;104249;-77
2022/07/18 02:02:31;;;;;;;4.53;2.60;;;;;;;15.28;54.56;101246.87;123436;1099;104778;-77
2022/07/18 02:05:03;;;;;;;3.00;2.03;;;;;;;15.26;54.01;101247.70;123558;1099;104403;-78
2022/07/18 02:07:36;;;;;;;5.40;2.40;;;;;;;15.25;54.29;101243.26;123538;1099;104351;-78
2022/07/18 02:10:11;;;;;;;5.72;2.58;;;;;;;15.23;54.77;101239.69;123568;1099;104309;-78
2022/07/18 02:12:43;;;;;;;4.97;2.77;;;;;;;15.20;53.73;101247.53;123613;1099;104222;-76
2022/07/18 02:15:16;;;;;;;7.07;2.50;;;;;;;15.18;54.78;101251.89;123585;1099;104177;-77
2022/07/18 02:17:47;;;;;;;4.90;2.30;;;;;;;15.20;54.41;101250.17;123548;1099;104313;-77
2022/07/18 02:20:19;;;;;;;5.07;2.57;;;;;;;15.20;54.95;101252.81;123247;1099;104418;-77
2022/07/18 02:22:50;;;;;;;3.93;2.43;;;;;;;15.20;55.36;101252.81;123196;1099;104312;-77
2022/07/18 02:25:21;;;;;;;5.80;2.40;;;;;;;15.17;54.42;101250.09;123411;1099;104348;-78
2022/07/18 02:27:53;;;;;;;3.30;2.53;;;;;;;15.14;54.75;101248.23;123314;1099;104390;-77
2022/07/18 02:30:24;;;;;;;5.90;2.53;;;;;;;15.10;55.42;101254.30;123135;1099;104533;-77
2022/07/18 02:32:56;;;;;;;4.40;2.17;;;;;;;15.05;55.42;101253.25;123259;1099;104349;-77
2022/07/18 02:35:28;;;;;;;4.43;2.50;;;;;;;15.01;55.03;101257.56;123213;1099;104418;-78
2022/07/18 02:37:59;;;;;;;5.45;2.30;;;;;;;14.96;55.37;101252.98;123267;1099;104377;-77
2022/07/18 02:40:31;;;;;;;5.03;2.40;;;;;;;14.93;55.88;101248.52;123274;1099;104296;-77
2022/07/18 02:43:02;;;;;;;3.77;2.40;;;;;;;14.90;55.28;101256.36;123224;1099;104459;-77
2022/07/18 02:45:34;;;;;;;5.03;2.30;;;;;;;14.88;55.39;101264.23;123204;1102;104421;-77
2022/07/18 02:48:07;;;;;;;4.27;2.57;;;;;;;14.86;56.08;101262.39;123308;1098;104338;-77
2022/07/18 02:50:39;;;;;;;6.23;2.63;;;;;;;14.85;55.90;101265.87;123292;1102;104413;-77
2022/07/18 02:53:11;;;;;;;5.25;2.40;;;;;;;14.82;56.25;101263.13;123321;1098;104299;-77
2022/07/18 02:55:42;;;;;;;4.50;2.50;;;;;;;14.81;56.24;101271.92;123156;1098;104361;-77
2022/07/18 02:58:14;;;;;;;3.53;2.37;;;;;;;14.78;55.96;101270.08;123263;1099;104431;-77
2022/07/18 03:00:45;;;;;;;2.83;2.23;;;;;;;14.74;56.62;101265.57;123601;1099;104671;-78
2022/07/18 03:03:17;;;;;;;3.87;2.40;;;;;;;14.71;56.71;101271.64;123598;1099;104326;-77
2022/07/18 03:05:48;;;;;;;5.27;2.60;;;;;;;14.71;57.41;101274.28;123558;1099;104297;-77
2022/07/18 03:08:19;;;;;;;5.13;2.63;;;;;;;14.69;57.20;101273.35;123517;1099;104383;-77
2022/07/18 03:10:51;;;;;;;4.37;2.37;;;;;;;14.67;57.43;101269.74;123687;1099;104383;-78
2022/07/18 03:13:23;;;;;;;6.73;2.50;;;;;;;14.68;57.57;101274.19;123697;1099;104696;-78
2022/07/18 03:15:54;;;;;;;5.10;2.67;;;;;;;14.69;57.02;101275.99;123707;1099;104246;-78
2022/07/18 03:18:26;;;;;;;6.63;2.50;;;;;;;14.70;57.59;101276.88;123677;1099;104284;-78
2022/07/18 03:20:57;;;;;;;5.77;2.90;;;;;;;14.71;57.52;101278.68;123662;1099;104444;-78
2022/07/18 03:23:29;;;;;;;7.10;2.97;;;;;;;14.70;57.80;101280.41;123706;1099;104341;-78
2022/07/18 03:26:00;;;;;;;5.85;2.70;;;;;;;14.67;58.02;101275.02;123614;1099;104242;-78
2022/07/18 03:28:32;;;;;;;4.93;2.37;;;;;;;14.63;58.59;101272.23;123823;1099;104283;-78
2022/07/18 03:31:04;;;;;;;8.37;3.20;;;;;;;14.64;57.91;101274.05;123618;1099;104366;-78
2022/07/18 03:33:37;;;;;;;6.43;2.80;;;;;;;14.70;58.39;101268.95;123636;1099;108228;-80
2022/07/18 03:36:12;;;;;;;8.47;3.60;;;;;;;14.74;59.02;101274.37;123769;1099;104293;-79
2022/07/18 03:38:44;;;;;;;11.57;3.57;;;;;;;14.79;58.59;101278.89;123686;1098;104258;-79
2022/07/18 03:41:16;;;;;;;6.00;3.60;;;;;;;14.82;58.71;101274.62;123593;1099;104346;-79
2022/07/18 03:43:47;;;;;;;12.53;4.37;;;;;;;14.86;58.34;101283.52;123652;1099;120225;-79
2022/07/18 03:46:18;;;;;;;11.67;4.60;;;;;;;14.89;58.20;101281.86;123772;1098;104265;-79
2022/07/18 03:48:50;;;;;;;11.03;4.57;;;;;;;14.94;58.79;101282.00;123845;1099;104262;-79
2022/07/18 03:51:21;;;;;;;11.97;4.80;;;;;;;15.02;59.21;101295.45;123727;1099;104354;-78
2022/07/18 03:53:53;;;;;;;11.03;4.30;;;;;;;15.03;58.07;101290.21;123812;1098;104341;-78
2022/07/18 03:56:24;;;;;;;9.70;3.93;;;;;;;15.08;58.74;101288.63;123717;1099;104343;-77
2022/07/18 03:58:56;;;;;;;8.03;3.70;;;;;;;15.14;58.61;101297.58;123558;1099;104472;-78
2022/07/18 04:01:27;;;;;;;10.25;3.80;;;;;;;15.16;57.95;101296.78;123587;1098;104261;-78
2022/07/18 04:03:58;;;;;;;9.00;3.80;;;;;;;15.17;58.33;101301.20;123720;1099;104759;-78
2022/07/18 04:06:30;;;;;;;6.37;3.37;;;;;;;15.22;58.60;101304.90;123660;1099;104331;-78
2022/07/18 04:09:01;;;;;;;7.05;3.30;;;;;;;15.26;57.78;101306.76;123735;1098;104354;-78
2022/07/18 04:11:36;;;;;;;8.70;2.90;;;;;;;15.31;58.31;101306.01;123640;1099;104495;-77
2022/07/18 04:14:07;;;;;;;7.90;3.30;;;;;;;15.40;57.70;101300.98;123705;1099;104268;-78
2022/07/18 04:16:39;;;;;;;8.07;3.30;;;;;;;15.48;57.98;101303.85;123862;1099;104721;-78
2022/07/18 04:19:11;;;;;;;9.97;3.03;;;;;;;15.56;57.66;101305.84;123753;1099;104272;-78
2022/07/18 04:21:43;;;;;;;12.50;3.30;;;;;;;15.60;58.45;101306.84;123891;1099;104267;-77
2022/07/18 04:24:14;;;;;;;3.97;2.70;;;;;;;15.69;58.10;101301.81;123715;1099;104386;-78
2022/07/18 04:26:46;;;;;;;10.60;3.33;;;;;;;15.77;57.40;101300.30;123702;1098;104789;-77
2022/07/18 04:29:17;;;;;;;5.57;2.87;;;;;;;15.84;57.79;101300.46;123764;1099;104303;-78
2022/07/18 04:31:49;;;;;;;9.63;3.10;;;;;;;15.93;57.96;101308.66;123804;1099;104740;-77
2022/07/18 04:34:20;;;;;;;8.20;2.83;;;;;;;16.03;57.70;101313.31;123666;1099;104214;-77
2022/07/18 04:36:52;;;;;;;8.20;2.73;;;;;;;16.13;57.80;101312.71;123666;1098;104236;-78
2022/07/18 04:39:23;;;;;;;5.60;2.80;;;;;;;16.20;58.02;101305.81;123761;1099;104254;-78
2022/07/18 04:41:56;;;;;;;6.63;2.67;;;;;;;16.24;57.41;101301.52;124067;1099;104239;-78
2022/07/18 04:44:27;;;;;;;6.70;2.90;;;;;;;16.29;57.07;101308.69;123753;1099;104213;-77
2022/07/18 04:46:59;;;;;;;5.13;2.70;;;;;;;16.34;57.01;101306.16;123781;1099;104297;-77
2022/07/18 04:49:30;;;;;;;8.43;2.77;;;;;;;16.38;57.32;101310.69;124735;1099;104188;-78
2022/07/18 04:52:02;;;;;;;5.87;2.80;;;;;;;16.43;56.91;101310.80;124595;1099;104220;-78
2022/07/18 04:54:36;;;;;;;9.93;3.20;;;;;;;16.49;57.27;101308.30;124539;1099;104367;-78
2022/07/18 04:57:08;;;;;;;7.87;3.00;;;;;;;16.54;57.08;101318.13;123810;1099;104303;-78
2022/07/18 04:59:40;;;;;;;7.67;2.80;;;;;;;16.61;57.64;101320.93;123945;1099;104417;-78
2022/07/18 05:02:13;;;;;;;8.77;3.30;;;;;;;16.66;56.84;101316.66;124011;1098;104297;-78
2022/07/18 05:04:49;;;;;;;6.30;2.90;;;;;;;16.73;57.28;101315.05;124307;1098;104172;-77
2022/07/18 05:07:20;;;;;;;8.93;2.70;;;;;;;16.82;57.38;101316.14;124477;1099;104300;-78
2022/07/18 05:09:52;;;;;;;6.33;2.73;;;;;;;16.89;56.89;101318.13;124505;1099;104174;-78
2022/07/18 05:12:24;;;;;;;3.63;2.40;;;;;;;16.95;56.53;101317.34;124461;1099;104173;-78
2022/07/18 05:14:55;;;;;;;8.23;2.93;;;;;;;17.03;56.71;101320.17;124382;1099;104322;-78
2022/07/18 05:17:27;;;;;;;7.57;3.00;;;;;;;17.10;56.25;101310.61;124574;1099;104162;-77
2022/07/18 05:19:58;;;;;;;6.33;3.20;;;;;;;17.14;56.25;101316.02;124137;1099;104348;-77
2022/07/18 05:22:30;;;;;;;5.57;3.03;;;;;;;17.22;56.51;101317.08;124270;1099;104410;-77
2022/07/18 05:25:06;;;;;;;10.47;3.10;;;;;;;17.29;56.13;101328.70;124604;1099;104163;-77
2022/07/18 05:27:39;;;;;;;8.67;3.07;;;;;;;17.35;56.27;101331.48;124626;1099;105038;-77
2022/07/18 05:30:14;;;;;;;12.27;2.90;;;;;;;17.42;55.71;101330.76;124728;1099;104214;-77
2022/07/18 05:33:05;;;;;;;7.40;2.90;;;;;;;17.46;55.75;101325.52;124778;1099;104332;-77
2022/07/18 05:35:37;;;;;;;10.13;3.50;;;;;;;17.51;55.65;101323.84;126504;1099;103096;-77
2022/07/18 05:38:14;;;;;;;9.03;3.10;;;;;;;17.60;55.71;101324.03;124340;1099;104303;-77
2022/07/18 05:40:46;;;;;;;9.30;2.93;;;;;;;17.66;55.64;101320.62;124579;1099;104216;-77
2022/07/18 05:43:20;;;;;;;7.70;2.90;;;;;;;17.71;55.52;101324.25;125502;1099;104159;-78
2022/07/18 05:45:52;;;;;;;6.47;2.80;;;;;;;17.77;55.43;101322.59;125034;1099;104319;-79
2022/07/18 05:48:32;;;;;;;6.80;2.90;;;;;;;17.86;55.26;101321.89;125126;1099;104245;-78
2022/07/18 05:51:10;;;;;;;5.33;2.73;;;;;;;17.96;55.00;101318.55;126072;1099;103918;-79
2022/07/18 05:53:43;;;;;;;7.50;2.93;;;;;;;18.05;54.71;101319.61;126145;1099;102566;-78
2022/07/18 05:56:17;;;;;;;6.10;3.00;;;;;;;18.13;54.60;101320.63;124667;1099;104639;-78
2022/07/18 05:59:01;;;;;;;4.53;2.87;;;;;;;18.20;54.85;101322.54;125673;1099;104239;-79
2022/07/18 06:01:43;;;;;;;7.43;3.33;;;;;;;18.26;54.60;101314.67;126066;1102;102663;-79
2022/07/18 06:04:21;;;;;;;9.73;3.33;;;;;;;18.34;54.45;101314.81;125458;1102;102632;-79
2022/07/18 06:10:47;;;;;;;5.83;2.80;;;;;;;18.45;53.83;101307.91;126086;1102;102927;-78
2022/07/18 06:13:22;;;;;;;5.70;2.93;;;;;;;18.52;53.85;101311.54;126024;1102;103540;-77
2022/07/18 06:16:00;;;;;;;6.97;3.40;;;;;;;18.60;53.65;101307.23;126046;1102;102272;-77
2022/07/18 06:18:45;;;;;;;8.13;3.50;;;;;;;18.69;53.76;101307.38;126054;1102;103330;-77
2022/07/18 06:21:24;;;;;;;9.13;3.53;;;;;;;18.79;53.17;101304.85;126083;1102;101610;-77
2022/07/18 06:23:57;;;;;;;10.30;3.30;;;;;;;18.84;53.46;101304.09;125995;1102;103156;-77
2022/07/18 06:26:36;;;;;;;5.43;3.03;;;;;;;18.90;53.42;101300.64;125903;1102;103100;-80
2022/07/18 06:29:30;;;;;;;7.50;3.37;;;;;;;18.99;52.94;101306.06;126024;1102;103247;-78
2022/07/18 06:32:11;;;;;;;7.73;2.50;;;;;;;19.08;52.99;101302.64;126071;1102;102305;-78
2022/07/18 06:35:05;;;;;;;5.37;2.97;;;;;;;19.16;53.06;101292.98;125988;1102;102352;-79
2022/07/18 06:37:48;;;;;;;7.83;2.67;;;;;;;19.26;52.68;101290.45;126034;1101;102682;-78
2022/07/18 06:40:42;;;;;;;9.13;2.93;;;;;;;19.35;52.14;101285.24;126044;1099;102677;-78
2022/07/18 06:43:24;;;;;;;9.67;2.80;;;;;;;19.46;52.58;101290.70;126096;1102;102179;-79
2022/07/18 06:46:03;;;;;;;5.40;2.83;;;;;;;19.55;52.24;101285.48;126171;1099;102340;-78
2022/07/18 06:48:54;;;;;;;6.57;2.13;;;;;;;19.65;51.47;101292.70;126449;1099;102645;-78
2022/07/18 06:51:37;;;;;;;5.67;2.50;;;;;;;19.73;51.43;101290.13;126575;1097;102172;-79
2022/07/18 06:54:36;;;;;;;6.20;2.70;;;;;;;19.77;51.24;101288.41;126452;1099;102438;-78
2022/07/18 06:57:20;;;;;;;6.33;2.90;;;;;;;19.83;51.45;101280.48;126904;1099;102664;-79
2022/07/18 06:59:56;;;;;;;7.20;2.90;;;;;;;19.90;50.44;101287.67;126215;1099;102073;-78
2022/07/18 07:02:57;;;;;;;4.40;2.33;;;;;;;19.99;50.54;101281.52;126325;1098;103824;-79
2022/07/18 07:05:51;;;;;;;4.53;2.30;;;;;;;20.14;50.42;101279.00;126919;1098;102053;-78
2022/07/18 07:08:42;;;;;;;5.10;2.40;;;;;;;20.36;49.29;101268.52;126390;1099;102580;-79
2022/07/18 07:11:21;;;;;;;4.20;2.37;;;;;;;20.60;49.94;101271.36;126841;1098;103288;-77
2022/07/18 07:13:54;;;;;;;5.27;2.67;;;;;;;20.80;49.53;101266.19;126130;1099;104501;-78
2022/07/18 07:16:29;;;;;;;4.67;2.07;;;;;;;20.98;48.86;101261.83;124692;1099;104345;-79
2022/07/18 07:19:08;;;;;;;3.03;2.20;;;;;;;21.21;48.34;101269.02;125633;1099;104189;-79
2022/07/18 07:22:02;;;;;;;7.73;2.90;;;;;;;21.45;47.00;101270.91;126241;1099;104136;-79
2022/07/18 07:24:47;;;;;;;1.70;1.60;;;;;;;21.70;45.96;101270.09;125707;1102;103509;-80
2022/07/18 07:27:36;;;;;;;2.05;1.80;;;;;;;21.94;45.92;101271.05;125588;1102;105036;-78
2022/07/18 07:30:38;;;;;;;3.03;1.83;;;;;;;22.14;45.40;101260.34;125493;1101;102534;-80
2022/07/18 07:33:36;;;;;;;6.37;2.07;;;;;;;22.31;43.95;101272.86;125560;1102;103464;-78
2022/07/18 07:36:23;;;;;;;4.47;1.77;;;;;;;22.50;44.48;101260.36;125437;1103;104281;-79
2022/07/18 07:39:14;;;;;;;3.43;1.97;;;;;;;22.72;43.23;101267.47;125457;1103;102530;-76
2022/07/18 07:42:05;;;;;;;3.10;1.83;;;;;;;22.92;42.95;101263.83;124719;1102;120014;-77
2022/07/18 07:44:54;;;;;;;15.10;3.27;;;;;;;22.98;42.85;101261.13;125658;1102;103702;-78
2022/07/18 07:47:32;;;;;;;8.97;2.53;;;;;;;23.03;43.04;101263.79;124597;1102;104300;-78
2022/07/18 07:53:30;;;;;;;2.97;1.80;;;;;;;23.35;40.09;101268.16;126169;1101;102153;-79
2022/07/18 07:56:35;;;;;;;3.63;1.80;;;;;;;23.59;41.05;101264.45;126093;1102;102627;-80
2022/07/18 07:59:34;;;;;;;24.93;3.83;;;;;;;23.79;41.49;101257.16;125769;1102;102099;-79
2022/07/18 08:03:08;;;;;;;11.37;2.53;;;;;;;23.79;39.26;101262.52;126541;1098;101813;-80
2022/07/18 08:06:30;;;;;;;;;;;;;;;;;;;;;
2022/07/18 08:09:21;;;;;;;4.80;1.60;;;;;;;24.05;38.06;101254.32;127151;1098;102393;-79
2022/07/18 08:12:13;;;;;;;3.83;1.40;;;;;;;24.25;37.78;101255.95;126049;1099;102801;-77
2022/07/18 08:18:28;;;;;;;3.50;2.03;;;;;;;24.28;38.13;101258.61;126265;1099;103003;-79
2022/07/18 08:21:43;;;;;;;;;;;;;;;;;;;;;
2022/07/18 08:24:53;;;;;;;2.87;1.77;;;;;;;24.47;37.73;101262.00;126099;1099;102929;-78
2022/07/18 08:28:24;;;;;;;3.70;1.62;;;;;;;24.30;36.43;101259.47;124851;1102;104333;-79
2022/07/18 08:34:44;;;;;;;3.67;1.63;;;;;;;24.40;36.23;101250.45;125773;1102;102673;-80
2022/07/18 08:41:11;;;;;;;1.90;1.27;;;;;;;24.63;35.64;101252.03;125781;1105;103120;-78
2022/07/18 08:50:35;;;;;;;10.27;2.57;;;;;;;24.86;35.09;101250.90;125617;1109;103046;-77
2022/07/18 08:53:39;;;;;;;5.07;1.73;;;;;;;24.78;35.38;101250.98;125512;1106;102828;-79
2022/07/18 09:00:54;;;;;;;4.93;1.90;;;;;;;24.91;35.48;101243.67;125111;1109;103798;-79
2022/07/18 09:04:14;;;;;;;13.15;2.60;;;;;;;25.15;35.01;101239.80;124937;1112;108648;-79
2022/07/18 09:07:11;;;;;;;;;;;;;;;;;;;;;
2022/07/18 09:10:54;;;;;;;13.87;2.63;;;;;;;25.17;34.88;101247.84;125435;1109;102551;-81
2022/07/18 09:14:00;;;;;;;7.17;1.80;;;;;;;25.06;34.41;101250.66;125424;1109;102513;-80
2022/07/18 09:17:13;;;;;;;3.43;1.60;;;;;;;25.11;34.16;101244.30;125628;1109;103806;-79
2022/07/18 09:20:14;;;;;;;4.37;1.97;;;;;;;25.27;34.29;101236.05;125529;1109;102906;-78
2022/07/18 09:23:19;;;;;;;4.20;1.67;;;;;;;25.16;34.07;101235.31;125640;1109;103008;-80
2022/07/18 09:26:38;;;;;;;2.03;1.50;;;;;;;24.83;33.48;101242.88;125111;1106;114327;-79
2022/07/18 09:29:32;;;;;;;1.63;1.53;;;;;;;24.81;33.65;101233.94;125169;1105;103432;-79
2022/07/18 09:32:08;;;;;;;3.77;1.60;;;;;;;25.00;34.04;101235.51;125048;1106;103206;-79
2022/07/18 09:38:13;;;;;;;3.53;1.50;;;;;;;25.36;33.29;101230.59;125344;1105;103989;-81
2022/07/18 09:41:20;;;;;;;2.30;1.70;;;;;;;25.18;33.32;101226.34;125329;1106;102768;-80
2022/07/18 09:44:21;;;;;;;2.60;1.73;;;;;;;25.17;33.77;101237.10;125442;1106;102420;-80
2022/07/18 09:47:09;;;;;;;3.07;1.43;;;;;;;25.19;32.47;101230.78;125529;1102;103618;-80
2022/07/18 09:50:35;;;;;;;1.50;1.40;;;;;;;25.23;32.74;101229.84;125572;1102;102762;-80
2022/07/18 09:53:30;;;;;;;3.73;1.50;;;;;;;25.44;32.59;101227.79;125669;1102;102339;-77
2022/07/18 09:56:23;;;;;;;1.43;1.23;;;;;;;25.59;31.57;101219.50;125446;1102;103443;-78
2022/07/18 09:59:08;;;;;;;5.77;1.87;;;;;;;25.45;32.04;101222.39;124855;1102;104350;-79
2022/07/18 10:01:49;;;;;;;14.30;2.70;;;;;;;25.33;32.30;101227.94;125155;1102;104166;-78
2022/07/18 10:04:38;;;;;;;4.13;1.60;;;;;;;25.33;32.24;101222.57;125561;1102;102664;-80
2022/07/18 10:07:41;;;;;;;2.17;1.60;;;;;;;25.39;32.22;101217.11;125678;1102;102189;-78
2022/07/18 10:10:25;;;;;;;3.73;1.63;;;;;;;25.56;31.95;101213.30;125745;1100;104316;-77
2022/07/18 10:13:19;;;;;;;4.33;2.10;;;;;;;25.64;32.00;101212.25;125596;1102;103309;-77
2022/07/18 10:15:54;;;;;;;3.47;1.50;;;;;;;25.63;31.95;101210.50;125401;1102;103642;-78
2022/07/18 10:18:28;;;;;;;2.60;1.20;;;;;;;25.75;32.25;101208.52;124827;1098;104762;-79
2022/07/18 10:21:10;;;;;;;5.17;1.80;;;;;;;25.83;32.00;101210.15;124997;1099;104181;-77
2022/07/18 10:30:14;;;;;;;5.70;1.50;;;;;;;25.69;32.27;101195.18;126840;1099;102624;-77
2022/07/18 10:32:48;;;;;;;1.57;1.40;;;;;;;25.71;31.93;101196.03;126854;1099;102618;-77
2022/07/18 10:35:40;;;;;;;5.50;1.80;;;;;;;25.86;31.62;101198.47;126973;1098;102456;-76
2022/07/18 10:38:29;;;;;;;4.87;1.50;;;;;;;26.05;31.99;101185.63;126988;1098;101827;-77
2022/07/18 10:41:12;;;;;;;8.33;1.50;;;;;;;26.21;31.34;101183.57;126949;1098;102197;-78
2022/07/18 10:47:20;;;;;;;2.93;1.47;;;;;;;25.81;30.68;101176.16;125668;1099;103063;-77
2022/07/18 10:50:16;;;;;;;7.87;2.60;;;;;;;25.55;30.83;101176.58;125648;1098;102358;-79
2022/07/18 10:53:16;;;;;;;6.63;1.67;;;;;;;25.57;31.13;101178.34;125992;1099;102971;-79
2022/07/18 10:59:28;;;;;;;2.63;1.50;;;;;;;25.77;30.35;101167.28;126176;1099;104634;-80
2022/07/18 11:02:06;;;;;;;1.87;1.37;;;;;;;25.89;30.45;101165.28;126230;1099;107448;-77
2022/07/18 11:04:55;;;;;;;1.47;1.20;;;;;;;26.04;30.70;101165.05;116867;1099;10001233;-76
2022/07/18 11:07:30;;;;;;;1.87;1.30;;;;;;;26.15;30.44;101157.66;125387;1099;102472;-78
2022/07/18 11:10:05;;;;;;;3.90;1.50;;;;;;;26.29;30.28;101165.48;125593;1098;104258;-77
2022/07/18 11:12:45;;;;;;;2.37;1.60;;;;;;;26.39;30.68;101158.10;125380;1099;104808;-79
2022/07/18 11:15:22;;;;;;;3.30;1.67;;;;;;;26.31;30.32;101160.06;124857;1102;104057;-79
2022/07/18 11:18:10;;;;;;;3.93;1.80;;;;;;;26.26;30.11;101167.34;126393;1099;102176;-79
2022/07/18 11:20:48;;;;;;;3.43;1.50;;;;;;;26.39;30.20;101152.72;126257;1099;103633;-79
2022/07/18 11:23:28;;;;;;;5.47;1.60;;;;;;;26.46;30.15;101148.09;126234;1099;103647;-79
2022/07/18 11:26:02;;;;;;;2.70;1.60;;;;;;;26.60;29.83;101148.73;125747;1099;103009;-78
2022/07/18 11:29:00;;;;;;;2.93;1.53;;;;;;;26.77;30.00;101151.10;126351;1099;102864;-79
2022/07/18 11:31:43;;;;;;;3.70;1.83;;;;;;;26.94;29.35;101147.14;125708;1099;104165;-78
2022/07/18 11:34:18;;;;;;;1.95;1.75;;;;;;;27.12;29.33;101138.65;126070;1099;104217;-78
2022/07/18 11:36:56;;;;;;;5.87;2.37;;;;;;;27.21;28.97;101141.13;126209;1099;102877;-79
2022/07/18 11:39:52;;;;;;;3.87;1.43;;;;;;;27.35;29.27;101139.97;125657;1099;104114;-79
2022/07/18 11:42:45;;;;;;;19.23;13.53;;;;;;;27.44;28.68;101139.71;125610;1099;102896;-79
2022/07/18 11:45:50;;;;;;;5.77;4.20;;;;;;;27.46;28.49;101142.37;126244;1099;103566;-80
2022/07/18 11:48:30;;;;;;;9.83;3.70;;;;;;;27.21;29.19;101135.74;125662;1102;102843;-79
2022/07/18 11:51:21;;;;;;;7.70;4.30;;;;;;;27.03;29.02;101130.78;125668;1099;105335;-79
2022/07/18 11:54:08;;;;;;;3.93;2.00;;;;;;;26.85;28.77;101145.55;125220;1099;102844;-79
2022/07/18 11:56:54;;;;;;;6.43;3.10;;;;;;;26.75;29.42;101135.89;126180;1099;102503;-79
2022/07/18 11:59:47;;;;;;;8.40;2.90;;;;;;;26.86;29.06;101153.56;125559;1099;104338;-79
2022/07/18 12:02:37;;;;;;;3.03;1.73;;;;;;;26.99;29.07;101132.66;125747;1099;102377;-78
2022/07/18 12:05:39;;;;;;;1.97;1.53;;;;;;;26.88;29.49;101142.77;125130;1099;104538;-79
2022/07/18 12:08:35;;;;;;;7.07;2.00;;;;;;;26.73;29.18;101135.92;124898;1099;103404;-78
2022/07/18 12:11:27;;;;;;;9.43;2.80;;;;;;;26.59;29.31;101140.69;125279;1099;104028;-79
2022/07/18 12:14:19;;;;;;;8.03;2.70;;;;;;;26.61;29.37;101149.60;126001;1099;112868;-81
2022/07/18 12:17:04;;;;;;;7.57;2.20;;;;;;;26.44;29.13;101148.13;125824;1099;103303;-80
2022/07/18 12:19:46;;;;;;;3.33;1.93;;;;;;;26.38;29.23;101150.94;126070;1099;104379;-79
2022/07/18 12:22:21;;;;;;;5.77;2.00;;;;;;;26.30;28.84;101147.52;125910;1099;102941;-79
2022/07/18 12:25:00;;;;;;;4.70;1.93;;;;;;;26.32;28.96;101143.02;125373;1099;103069;-80
2022/07/18 12:27:56;;;;;;;2.30;1.80;;;;;;;26.24;29.27;101143.16;126146;1099;102395;-79
2022/07/18 12:30:32;;;;;;;2.83;1.63;;;;;;;26.19;29.04;101139.66;126190;1098;104653;-79
2022/07/18 12:33:16;;;;;;;2.80;1.70;;;;;;;26.15;28.94;101144.22;125429;1102;103374;-80
2022/07/18 12:36:01;;;;;;;2.93;1.80;;;;;;;26.18;29.20;101140.59;124750;1100;104306;-79
2022/07/18 12:38:36;;;;;;;4.03;1.67;;;;;;;26.25;29.11;101141.35;125459;1099;103227;-79
2022/07/18 12:41:31;;;;;;;3.93;1.80;;;;;;;26.42;29.53;101136.52;125492;1099;104098;-79
2022/07/18 12:44:14;;;;;;;3.17;1.33;;;;;;;26.68;29.30;101140.53;125598;1102;103150;-80
2022/07/18 12:46:57;;;;;;;2.30;1.60;;;;;;;26.73;28.87;101125.16;125517;1102;105323;-79
2022/07/18 12:49:33;;;;;;;3.40;1.53;;;;;;;26.71;29.24;101129.70;125464;1102;103408;-79
2022/07/18 12:52:08;;;;;;;2.23;1.50;;;;;;;26.67;28.86;101126.16;126068;1101;102736;-79
2022/07/18 12:55:25;;;;;;;;;;;;;;;;;;;;;
2022/07/18 12:58:21;;;;;;;4.33;1.50;;;;;;;26.49;28.98;101135.48;126209;1099;102461;-81
2022/07/18 13:00:56;;;;;;;3.77;1.50;;;;;;;26.43;28.58;101137.39;126015;1102;102186;-79